Nevsehir Kapadokya International Airport Nevsehir TR
ICAO: LTAZ
IATA: NAV
Category: Large
Scheduled Services: No

Elevation: 3100 ft
TransAlt. 10000 ft.

Airport Communications:
ESENBOGA APP:119.1
TWR:35.892
TWR:119

LTAZ Zoom In..

If you have problems with the map follow the link
https://www.worldairports.se/pages/airport.php?
ICAO=LTAZ

Runways:

(A) RW 11 length 9843 ft width 148 ft
ILS 110.70 / hdg 113

(B) RW 29 length 9843 ft width 148 ft
---- / hdg 293

Location; LTAZ
Day. 22 / Time. 11.50 Zulu
* QNH: 1019
* Temperature: 19° c. 66.2°f.
* Wind from: 340° Speed 03 kn.
Dewpoint: 07° c.
Visibility: 10 km or more.
Clouds: Scattered 4000 ft.

LTAZ 221150Z 34003KT 260V060 9999 SCT040 19/07 Q1019


Wind From 340°
Speed 03 kn.

 
 
jpsmedia.com for Web Design worldairports.se 2018   terms of use